Time;durP1;ratioP1;P1;durP2;ratioP2;P2;SDS_P1;SDS_P2;PMS_P1;PMS_P2;Temp;Humidity;BMP_temperature;BMP_pressure;BME280_temperature;BME280_humidity;BME280_pressure;Samples;Min_cycle;Max_cycle;Signal;HPM_P1;HPM_P2
2023/10/10 05:47:24;;;;;;;14.73;10.63;;;;;;;;;;10565216;28;20446;-86
2023/10/10 05:52:25;;;;;;;16.52;11.65;;;;;;;;;;10562590;28;20020;-85
2023/10/10 05:57:28;;;;;;;12.38;9.35;;;;;;;;;;10552540;28;20029;-86
2023/10/10 06:02:29;;;;;;;13.45;8.50;;;;;;;;;;10558505;28;20061;-85
2023/10/10 06:07:30;;;;;;;11.23;8.63;;;;;;;;;;10566320;28;20054;-85
2023/10/10 06:12:33;;;;;;;9.13;7.40;;;;;;;;;;10580600;28;20025;-84
2023/10/10 06:17:35;;;;;;;12.38;8.85;;;;;;;;;;10571598;28;20052;-85
2023/10/10 06:22:37;;;;;;;12.48;9.57;;;;;;;;;;10554958;28;20074;-85
2023/10/10 06:27:40;;;;;;;12.20;9.88;;;;;;;;;;10560854;28;20031;-85
2023/10/10 06:32:43;;;;;;;14.10;10.25;;;;;;;;;;10556963;28;20032;-85
2023/10/10 06:37:44;;;;;;;18.48;12.68;;;;;;;;;;10556311;28;20029;-84
2023/10/10 06:42:47;;;;;;;19.42;14.48;;;;;;;;;;10572923;28;20071;-85
2023/10/10 06:47:50;;;;;;;15.88;12.45;;;;;;;;;;10580088;28;20024;-84
2023/10/10 06:52:55;;;;;;;20.00;14.32;;;;;;;;;;10545346;28;20108;-83
2023/10/10 06:57:59;;;;;;;16.90;12.40;;;;;;;;;;10521273;28;20017;-85
2023/10/10 07:03:00;;;;;;;17.27;13.50;;;;;;;;;;10517771;28;20032;-85
2023/10/10 07:08:19;;;;;;;20.45;15.52;;;;;;;;;;10517661;28;20025;-85
2023/10/10 07:13:29;;;;;;;11.18;7.07;;;;;;;;;;10521591;28;20054;-85
2023/10/10 07:18:32;;;;;;;14.00;10.65;;;;;;;;;;10520333;28;20028;-84
2023/10/10 07:24:02;;;;;;;16.10;12.00;;;;;;;;;;10519334;28;20067;-84
2023/10/10 07:29:22;;;;;;;;;;;;;;;;;;10523300;28;20016;-85
2023/10/10 07:34:34;;;;;;;22.00;16.02;;;;;;;;;;10518298;28;19912;-85
2023/10/10 07:44:58;;;;;;;18.92;14.38;;;;;;;;;;10511450;28;20492;-83
2023/10/10 07:50:08;;;;;;;21.90;15.60;;;;;;;;;;10513068;28;20027;-83
2023/10/10 07:55:15;;;;;;;21.70;15.17;;;;;;;;;;10513665;28;20044;-84
2023/10/10 08:00:26;;;;;;;19.00;14.07;;;;;;;;;;10512554;28;20032;-83
2023/10/10 08:05:29;;;;;;;20.92;15.30;;;;;;;;;;10510765;28;20024;-83
2023/10/10 08:10:35;;;;;;;20.88;13.18;;;;;;;;;;10514327;28;20016;-84
2023/10/10 08:15:48;;;;;;;17.63;12.77;;;;;;;;;;10520219;28;20079;-84
2023/10/10 08:25:53;;;;;;;20.42;12.55;;;;;;;;;;10517625;28;20056;-84
2023/10/10 08:30:54;;;;;;;20.60;14.30;;;;;;;;;;10516838;28;20123;-84
2023/10/10 08:35:55;;;;;;;18.67;12.40;;;;;;;;;;10517637;28;20063;-85
2023/10/10 08:41:01;;;;;;;19.08;12.52;;;;;;;;;;10520185;28;20032;-84
2023/10/10 08:46:04;;;;;;;16.83;11.13;;;;;;;;;;10527547;28;20035;-83
2023/10/10 08:51:05;;;;;;;18.08;11.95;;;;;;;;;;10521540;28;20024;-84
2023/10/10 08:56:06;;;;;;;15.85;10.80;;;;;;;;;;10508208;28;20024;-84
2023/10/10 09:01:08;;;;;;;13.00;9.18;;;;;;;;;;10507205;28;20341;-83
2023/10/10 09:06:16;;;;;;;13.07;8.15;;;;;;;;;;10507655;28;20100;-83
2023/10/10 09:11:20;;;;;;;11.82;7.90;;;;;;;;;;10510042;28;20025;-84
2023/10/10 09:16:44;;;;;;;14.43;9.95;;;;;;;;;;10508886;28;20056;-84
2023/10/10 09:21:50;;;;;;;10.02;7.05;;;;;;;;;;10508260;28;20084;-83
2023/10/10 09:26:56;;;;;;;9.18;5.78;;;;;;;;;;10513669;28;20431;-83
2023/10/10 09:31:59;;;;;;;11.63;6.78;;;;;;;;;;10517630;28;20112;-84
2023/10/10 09:37:01;;;;;;;13.75;7.20;;;;;;;;;;10513115;28;20065;-84
2023/10/10 09:42:07;;;;;;;9.10;6.28;;;;;;;;;;10514920;28;20505;-84
2023/10/10 09:57:43;;;;;;;10.63;6.87;;;;;;;;;;10517407;28;20037;-83
2023/10/10 10:02:48;;;;;;;9.23;5.55;;;;;;;;;;10518282;28;20259;-84
2023/10/10 10:08:32;;;;;;;9.63;6.07;;;;;;;;;;10513394;28;20108;-84
2023/10/10 10:13:44;;;;;;;11.15;6.80;;;;;;;;;;10444476;28;20033;-85
2023/10/10 10:18:52;;;;;;;9.70;7.15;;;;;;;;;;10512625;28;20107;-86
2023/10/10 10:29:28;;;;;;;8.48;5.53;;;;;;;;;;10518284;28;20028;-86
2023/10/10 10:39:35;;;;;;;9.60;5.20;;;;;;;;;;10515198;28;20543;-85
2023/10/10 10:49:54;;;;;;;15.27;13.18;;;;;;;;;;10519766;28;20036;-85
2023/10/10 10:55:18;;;;;;;8.10;5.38;;;;;;;;;;10514075;28;20040;-85
2023/10/10 11:00:27;;;;;;;9.27;6.05;;;;;;;;;;10518514;28;20029;-86
2023/10/10 11:05:29;;;;;;;11.35;6.72;;;;;;;;;;10517097;28;20029;-84
2023/10/10 11:10:36;;;;;;;8.68;5.35;;;;;;;;;;10510987;28;20460;-86
2023/10/10 11:15:38;;;;;;;8.85;5.45;;;;;;;;;;10511886;28;20036;-85
2023/10/10 11:20:55;;;;;;;8.40;5.57;;;;;;;;;;10508990;28;20459;-85
2023/10/10 11:26:00;;;;;;;11.13;6.93;;;;;;;;;;10512469;28;20032;-85
2023/10/10 11:31:03;;;;;;;8.52;5.32;;;;;;;;;;10514776;28;20046;-84
2023/10/10 11:36:24;;;;;;;10.18;5.47;;;;;;;;;;10516997;28;20020;-85
2023/10/10 11:41:35;;;;;;;9.95;5.80;;;;;;;;;;10519070;28;20021;-85
2023/10/10 11:46:38;;;;;;;8.00;5.05;;;;;;;;;;10518998;28;20044;-85
2023/10/10 11:51:40;;;;;;;6.25;4.65;;;;;;;;;;10524221;28;20227;-85
2023/10/10 11:56:45;;;;;;;10.73;5.80;;;;;;;;;;10515100;22;20037;-82
2023/10/10 12:01:49;;;;;;;13.85;9.20;;;;;;;;;;10423475;28;20033;-78
2023/10/10 12:06:50;;;;;;;11.77;5.55;;;;;;;;;;10413381;28;20037;-78
2023/10/10 12:11:58;;;;;;;8.15;4.95;;;;;;;;;;10426548;28;20053;-78
2023/10/10 12:17:01;;;;;;;10.30;5.90;;;;;;;;;;10428200;28;20048;-79
2023/10/10 12:22:08;;;;;;;10.68;5.68;;;;;;;;;;10427118;28;20025;-77
2023/10/10 12:27:09;;;;;;;12.43;5.55;;;;;;;;;;10435555;28;20516;-78
2023/10/10 12:32:18;;;;;;;7.95;5.35;;;;;;;;;;10426590;28;20374;-78
2023/10/10 12:37:23;;;;;;;11.57;6.47;;;;;;;;;;10426069;28;20074;-78
2023/10/10 12:42:24;;;;;;;8.88;6.30;;;;;;;;;;10425161;28;20473;-79
2023/10/10 12:47:27;;;;;;;13.00;6.93;;;;;;;;;;10423561;28;20115;-79
2023/10/10 12:52:35;;;;;;;10.73;6.15;;;;;;;;;;10423942;28;20071;-79
2023/10/10 12:57:39;;;;;;;10.07;5.97;;;;;;;;;;10424655;28;20091;-81
2023/10/10 13:02:40;;;;;;;11.25;6.07;;;;;;;;;;10423372;28;20021;-79
2023/10/10 13:07:43;;;;;;;9.82;4.75;;;;;;;;;;10423974;28;20089;-84
2023/10/10 13:12:51;;;;;;;7.38;4.80;;;;;;;;;;10433150;28;20017;-82
2023/10/10 13:18:19;;;;;;;8.88;4.75;;;;;;;;;;10427490;28;20064;-83
2023/10/10 13:23:19;;;;;;;10.18;5.18;;;;;;;;;;10427287;28;20120;-84
2023/10/10 13:28:21;;;;;;;10.57;5.45;;;;;;;;;;10428547;28;20017;-83
2023/10/10 13:33:22;;;;;;;8.90;5.07;;;;;;;;;;10430482;28;20036;-83
2023/10/10 13:38:25;;;;;;;11.15;6.32;;;;;;;;;;10428901;28;20097;-84
2023/10/10 13:43:26;;;;;;;9.07;6.05;;;;;;;;;;10428787;28;20473;-83
2023/10/10 13:48:27;;;;;;;9.68;5.90;;;;;;;;;;10428755;28;20025;-83
2023/10/10 13:53:29;;;;;;;10.65;5.90;;;;;;;;;;10429633;28;20034;-82
2023/10/10 13:58:30;;;;;;;8.65;5.35;;;;;;;;;;10427547;28;20045;-82
2023/10/10 14:03:35;;;;;;;13.00;6.22;;;;;;;;;;10428311;28;20396;-83
2023/10/10 14:08:36;;;;;;;10.15;5.38;;;;;;;;;;10435431;28;20062;-82
2023/10/10 14:13:39;;;;;;;9.10;5.10;;;;;;;;;;10433761;28;20029;-82
2023/10/10 14:18:46;;;;;;;10.43;4.97;;;;;;;;;;10411951;28;20026;-77
2023/10/10 14:23:47;;;;;;;10.18;5.25;;;;;;;;;;10429394;28;20030;-78
2023/10/10 14:28:50;;;;;;;10.63;4.88;;;;;;;;;;10433523;28;20013;-78
2023/10/10 14:33:52;;;;;;;10.27;6.85;;;;;;;;;;10436335;28;20503;-78
2023/10/10 14:38:53;;;;;;;8.20;5.05;;;;;;;;;;10431345;28;20319;-82
2023/10/10 14:43:54;;;;;;;10.82;5.55;;;;;;;;;;10427846;28;20056;-79
2023/10/10 14:54:42;;;;;;;11.85;5.38;;;;;;;;;;10359283;28;20022;-82
2023/10/10 14:59:43;;;;;;;9.95;6.03;;;;;;;;;;10431167;28;20029;-78
2023/10/10 15:04:45;;;;;;;9.63;5.43;;;;;;;;;;10427498;28;20042;-78
2023/10/10 15:09:46;;;;;;;11.68;5.95;;;;;;;;;;10421429;28;20085;-78
2023/10/10 15:14:47;;;;;;;9.35;5.55;;;;;;;;;;10420903;28;20167;-77
2023/10/10 15:19:48;;;;;;;10.35;5.90;;;;;;;;;;10441107;28;20068;-78
2023/10/10 15:24:52;;;;;;;10.27;4.85;;;;;;;;;;10448570;28;20030;-77
2023/10/10 15:29:53;;;;;;;11.95;5.65;;;;;;;;;;10436244;28;20025;-77
2023/10/10 15:34:55;;;;;;;8.23;5.30;;;;;;;;;;10423685;28;20029;-78
2023/10/10 15:39:57;;;;;;;9.40;5.07;;;;;;;;;;10425230;28;20178;-82
2023/10/10 15:44:58;;;;;;;7.45;5.28;;;;;;;;;;10424111;28;20128;-80
2023/10/10 15:50:00;;;;;;;8.98;5.18;;;;;;;;;;10428771;28;20525;-82
2023/10/10 15:55:05;;;;;;;8.32;4.80;;;;;;;;;;10427040;28;20029;-82
2023/10/10 16:00:10;;;;;;;8.50;5.22;;;;;;;;;;10430205;28;20037;-82
2023/10/10 16:05:16;;;;;;;7.45;4.68;;;;;;;;;;10426722;28;20082;-78
2023/10/10 16:10:17;;;;;;;8.00;4.93;;;;;;;;;;10425194;28;20037;-78
2023/10/10 16:15:18;;;;;;;7.28;4.70;;;;;;;;;;10425621;28;20047;-78
2023/10/10 16:20:22;;;;;;;11.93;5.13;;;;;;;;;;10424675;28;20374;-80
2023/10/10 16:25:24;;;;;;;10.07;4.90;;;;;;;;;;10429922;28;20123;-84
2023/10/10 16:30:32;;;;;;;7.05;4.70;;;;;;;;;;10428501;28;20044;-87
2023/10/10 16:35:33;;;;;;;7.78;4.45;;;;;;;;;;10422172;28;20032;-88
2023/10/10 16:40:36;;;;;;;8.23;4.57;;;;;;;;;;10421919;28;20040;-88
2023/10/10 16:45:52;;;;;;;11.75;5.10;;;;;;;;;;10424313;28;20036;-88
2023/10/10 16:51:02;;;;;;;10.18;4.80;;;;;;;;;;10422307;28;20021;-88
2023/10/10 16:56:07;;;;;;;8.25;5.60;;;;;;;;;;10429022;28;20037;-87
2023/10/10 17:01:17;;;;;;;6.78;4.90;;;;;;;;;;10427737;28;20079;-87
2023/10/10 17:06:22;;;;;;;9.40;5.07;;;;;;;;;;10425666;28;20362;-86
2023/10/10 17:11:24;;;;;;;6.30;4.40;;;;;;;;;;10425385;28;20032;-86
2023/10/10 17:16:28;;;;;;;8.40;4.25;;;;;;;;;;10421418;28;20029;-86
2023/10/10 17:21:30;;;;;;;10.18;5.57;;;;;;;;;;10419225;28;20032;-86
2023/10/10 17:26:31;;;;;;;12.57;5.60;;;;;;;;;;10418413;28;20022;-86
2023/10/10 17:31:32;;;;;;;13.00;6.07;;;;;;;;;;10419521;28;20025;-86
2023/10/10 17:36:35;;;;;;;15.95;8.00;;;;;;;;;;10419190;28;20098;-86
2023/10/10 17:41:36;;;;;;;14.32;7.20;;;;;;;;;;10418618;28;20029;-86
2023/10/10 17:46:37;;;;;;;15.88;8.48;;;;;;;;;;10425155;28;20022;-86
2023/10/10 17:51:38;;;;;;;15.65;7.82;;;;;;;;;;10423810;28;20056;-86
2023/10/10 17:56:44;;;;;;;16.58;7.60;;;;;;;;;;10418401;28;20056;-86
2023/10/10 18:01:45;;;;;;;16.02;7.63;;;;;;;;;;10418298;28;20060;-86
2023/10/10 18:06:46;;;;;;;17.02;8.75;;;;;;;;;;10419699;28;20026;-88
2023/10/10 18:11:48;;;;;;;16.08;8.07;;;;;;;;;;10429194;28;20017;-88
2023/10/10 18:16:49;;;;;;;15.15;7.53;;;;;;;;;;10457076;28;20044;-87
2023/10/10 18:21:52;;;;;;;13.77;6.90;;;;;;;;;;10456772;28;20029;-88
2023/10/10 18:26:57;;;;;;;13.77;6.53;;;;;;;;;;10455278;28;20022;-87
2023/10/10 18:31:58;;;;;;;12.65;6.63;;;;;;;;;;10455649;28;20036;-87
2023/10/10 18:37:01;;;;;;;11.25;6.15;;;;;;;;;;10431355;28;20033;-88
2023/10/10 18:42:04;;;;;;;9.68;6.00;;;;;;;;;;10442886;28;20030;-87
2023/10/10 18:47:05;;;;;;;10.18;6.10;;;;;;;;;;10463094;28;20025;-83
2023/10/10 18:52:06;;;;;;;10.23;5.90;;;;;;;;;;10467837;28;20026;-85
2023/10/10 18:57:08;;;;;;;10.82;5.75;;;;;;;;;;10446089;28;20042;-89
2023/10/10 19:02:21;;;;;;;11.48;6.10;;;;;;;;;;10453097;28;20010;-85
2023/10/10 19:07:24;;;;;;;9.10;6.70;;;;;;;;;;10471481;28;20037;-86
